Time;durP1;ratioP1;P1;durP2;ratioP2;P2;SDS_P1;SDS_P2;PMS_P1;PMS_P2;Temp;Humidity;BMP_temperature;BMP_pressure;BME280_temperature;BME280_humidity;BME280_pressure;Samples;Min_cycle;Max_cycle;Signal;HPM_P1;HPM_P2
2021/08/17 00:00:31;;;;;;;32.50;30.70;;;13.40;99.90;;;;;;5052524;28;21018;-73
2021/08/17 00:02:58;;;;;;;32.13;30.33;;;13.40;99.90;;;;;;5052190;28;20448;-74
2021/08/17 00:05:25;;;;;;;33.00;31.20;;;13.40;99.90;;;;;;5052716;28;20472;-73
2021/08/17 00:07:52;;;;;;;31.97;30.17;;;13.50;99.90;;;;;;5052988;28;20440;-74
2021/08/17 00:10:20;;;;;;;32.03;30.23;;;13.50;99.90;;;;;;5051125;28;20448;-75
2021/08/17 00:12:46;;;;;;;32.87;30.93;;;13.50;99.90;;;;;;5052429;28;20475;-74
2021/08/17 00:15:13;;;;;;;33.93;31.97;;;13.40;99.90;;;;;;5052633;28;20448;-74
2021/08/17 00:17:40;;;;;;;33.87;31.87;;;13.40;99.90;;;;;;5052348;28;20989;-75
2021/08/17 00:20:08;;;;;;;32.20;30.50;;;13.30;99.90;;;;;;5052488;28;20471;-74
2021/08/17 00:22:36;;;;;;;32.93;30.93;;;13.30;99.90;;;;;;5052377;28;20456;-74
2021/08/17 00:25:04;;;;;;;32.30;30.40;;;13.30;99.90;;;;;;5051926;28;20448;-75
2021/08/17 00:27:32;;;;;;;33.40;31.07;;;13.40;99.90;;;;;;5052286;28;20444;-75
2021/08/17 00:29:59;;;;;;;32.23;30.43;;;13.30;99.90;;;;;;5052439;28;20475;-75
2021/08/17 00:32:26;;;;;;;31.10;29.43;;;13.40;99.90;;;;;;5052162;28;20449;-76
2021/08/17 00:34:53;;;;;;;32.50;30.60;;;13.40;99.90;;;;;;5052170;28;20816;-75
2021/08/17 00:37:20;;;;;;;33.90;31.90;;;13.50;99.90;;;;;;5052122;28;21015;-74
2021/08/17 00:39:46;;;;;;;33.47;31.40;;;13.50;99.90;;;;;;5051926;28;20456;-74
2021/08/17 00:42:13;;;;;;;33.83;31.97;;;13.50;99.90;;;;;;5051912;28;20934;-74
2021/08/17 00:44:42;;;;;;;31.63;29.63;;;13.40;99.90;;;;;;5051767;28;20444;-73
2021/08/17 00:47:09;;;;;;;32.40;30.50;;;13.50;99.90;;;;;;5051974;28;20453;-75
2021/08/17 00:49:36;;;;;;;33.40;31.30;;;13.50;99.90;;;;;;5051673;28;20506;-74
2021/08/17 00:52:04;;;;;;;30.57;28.80;;;13.60;99.90;;;;;;5051788;28;20824;-74
2021/08/17 00:54:31;;;;;;;29.40;27.60;;;13.50;99.90;;;;;;5051689;28;20459;-73
2021/08/17 00:56:58;;;;;;;30.27;28.47;;;13.60;99.90;;;;;;5051322;28;20845;-75
2021/08/17 00:59:26;;;;;;;30.37;28.57;;;13.70;99.90;;;;;;5051746;28;20444;-74
2021/08/17 01:01:54;;;;;;;31.30;29.13;;;13.70;99.90;;;;;;5051813;28;20455;-74
2021/08/17 01:04:21;;;;;;;28.00;26.50;;;13.70;99.90;;;;;;5051561;28;20484;-75
2021/08/17 01:06:48;;;;;;;27.43;25.90;;;13.70;99.90;;;;;;5051565;28;20469;-75
2021/08/17 01:09:15;;;;;;;26.27;24.77;;;13.60;99.90;;;;;;5051129;28;20452;-78
2021/08/17 01:11:45;;;;;;;27.27;25.77;;;13.50;99.90;;;;;;5051385;28;20856;-78
2021/08/17 01:14:12;;;;;;;26.27;24.80;;;13.50;99.90;;;;;;5051303;28;20444;-78
2021/08/17 01:16:39;;;;;;;26.40;24.80;;;13.50;99.90;;;;;;5051049;28;20460;-78
2021/08/17 01:19:07;;;;;;;23.50;22.20;;;13.40;99.90;;;;;;5051377;28;20444;-77
2021/08/17 01:21:35;;;;;;;24.73;23.07;;;13.30;99.90;;;;;;5051360;28;20451;-77
2021/08/17 01:24:02;;;;;;;24.80;23.40;;;13.30;99.90;;;;;;5051111;28;20447;-77
2021/08/17 01:26:30;;;;;;;24.40;23.10;;;13.20;99.90;;;;;;5051229;28;20452;-77
2021/08/17 01:28:57;;;;;;;23.83;22.50;;;13.10;99.90;;;;;;5051259;28;20455;-76
2021/08/17 01:31:25;;;;;;;23.30;21.67;;;13.00;99.90;;;;;;5051815;28;20456;-76
2021/08/17 01:33:52;;;;;;;23.80;22.30;;;12.90;99.90;;;;;;5051435;28;20452;-76
2021/08/17 01:36:18;;;;;;;24.00;22.50;;;12.90;99.90;;;;;;5051319;28;20941;-75
2021/08/17 01:38:47;;;;;;;24.60;23.00;;;12.70;99.90;;;;;;5051417;28;20491;-75
2021/08/17 01:41:13;;;;;;;24.37;22.87;;;12.70;99.90;;;;;;5050933;28;20529;-75
2021/08/17 01:43:42;;;;;;;22.67;21.23;;;12.60;99.90;;;;;;5051053;28;20825;-75
2021/08/17 01:46:09;;;;;;;23.50;22.03;;;12.70;99.90;;;;;;5051253;28;20455;-76
2021/08/17 01:48:37;;;;;;;23.80;22.30;;;12.60;99.90;;;;;;5051104;28;20484;-76
2021/08/17 01:51:04;;;;;;;23.33;22.00;;;12.50;99.90;;;;;;5051118;28;20456;-76
2021/08/17 01:53:32;;;;;;;22.57;21.20;;;12.50;99.90;;;;;;5050899;28;21137;-73
2021/08/17 01:56:05;;;;;;;23.43;22.00;;;12.50;99.90;;;;;;5050475;28;20448;-73
2021/08/17 01:58:32;;;;;;;24.83;23.30;;;12.50;99.90;;;;;;5050602;28;20996;-71
2021/08/17 02:01:00;;;;;;;24.73;23.13;;;12.40;99.90;;;;;;5050771;28;20454;-72
2021/08/17 02:03:26;;;;;;;25.33;23.00;;;12.40;99.90;;;;;;5050687;28;20453;-72
2021/08/17 02:05:53;;;;;;;22.00;20.70;;;12.40;99.90;;;;;;5050772;28;20448;-72
2021/08/17 02:08:20;;;;;;;23.80;22.30;;;12.30;99.90;;;;;;5050788;28;20470;-73
2021/08/17 02:10:47;;;;;;;22.83;21.20;;;12.30;99.90;;;;;;5050378;28;20459;-72
2021/08/17 02:13:16;;;;;;;23.57;21.97;;;12.30;99.90;;;;;;5050491;28;20459;-73
2021/08/17 02:15:43;;;;;;;22.07;20.80;;;12.30;99.90;;;;;;5050680;28;20954;-73
2021/08/17 02:18:11;;;;;;;23.40;21.80;;;12.30;99.90;;;;;;5050542;28;21011;-73
2021/08/17 02:20:38;;;;;;;23.80;22.30;;;12.20;99.90;;;;;;5050709;28;20937;-72
2021/08/17 02:23:05;;;;;;;23.50;21.73;;;12.20;99.90;;;;;;5050413;28;20455;-72
2021/08/17 02:25:32;;;;;;;24.20;22.07;;;12.20;99.90;;;;;;5050503;28;20490;-72
2021/08/17 02:27:59;;;;;;;21.53;20.30;;;12.10;99.90;;;;;;5054204;28;20954;-72
2021/08/17 02:30:26;;;;;;;24.50;22.63;;;12.00;99.90;;;;;;5054706;28;20824;-74
2021/08/17 02:32:53;;;;;;;23.20;21.50;;;12.00;99.90;;;;;;5054605;28;20452;-76
2021/08/17 02:35:22;;;;;;;22.70;21.47;;;12.00;99.90;;;;;;5054393;28;20454;-74
2021/08/17 02:37:49;;;;;;;23.03;21.43;;;12.00;99.90;;;;;;5054481;28;20851;-74
2021/08/17 02:40:16;;;;;;;21.50;20.00;;;12.00;99.90;;;;;;5054407;28;20459;-73
2021/08/17 02:42:42;;;;;;;23.23;21.80;;;11.90;99.90;;;;;;5054041;28;20462;-72
2021/08/17 02:45:10;;;;;;;22.57;21.17;;;11.80;99.90;;;;;;5054277;28;20462;-74
2021/08/17 02:47:37;;;;;;;23.17;21.67;;;11.80;99.90;;;;;;5054742;28;20444;-73
2021/08/17 02:50:04;;;;;;;21.97;20.50;;;11.70;99.90;;;;;;5053956;28;20479;-73
2021/08/17 02:52:32;;;;;;;23.53;21.93;;;11.60;99.90;;;;;;5053931;28;21180;-74
2021/08/17 02:54:59;;;;;;;23.30;22.00;;;11.50;99.90;;;;;;5054002;28;20451;-74
2021/08/17 02:57:27;;;;;;;24.60;22.83;;;11.50;99.90;;;;;;5053979;28;20487;-73
2021/08/17 02:59:53;;;;;;;23.73;22.23;;;11.50;99.90;;;;;;5054008;28;20461;-72
2021/08/17 03:02:20;;;;;;;23.77;22.13;;;11.40;99.90;;;;;;5053702;28;20908;-73
2021/08/17 03:04:47;;;;;;;22.50;21.30;;;11.40;99.90;;;;;;5053731;28;20595;-73
2021/08/17 03:07:13;;;;;;;23.30;21.70;;;11.40;99.90;;;;;;5053763;28;20455;-74
2021/08/17 03:09:41;;;;;;;24.70;23.00;;;11.40;99.90;;;;;;5053855;28;20444;-74
2021/08/17 03:12:09;;;;;;;24.87;23.07;;;11.50;99.90;;;;;;5053762;28;20463;-73
2021/08/17 03:14:35;;;;;;;24.43;22.60;;;11.40;99.90;;;;;;5053634;28;20509;-73
2021/08/17 03:17:02;;;;;;;23.83;22.33;;;11.40;99.90;;;;;;5053611;28;20458;-73
2021/08/17 03:19:29;;;;;;;23.57;22.03;;;11.40;99.90;;;;;;5053497;28;20634;-72
2021/08/17 03:21:56;;;;;;;24.07;22.50;;;11.40;99.90;;;;;;5053499;28;20456;-73
2021/08/17 03:24:22;;;;;;;23.47;21.83;;;11.40;99.90;;;;;;5053897;28;20808;-72
2021/08/17 03:26:50;;;;;;;23.63;21.90;;;11.30;99.90;;;;;;5053263;28;20497;-72
2021/08/17 03:29:17;;;;;;;25.40;23.70;;;11.40;99.90;;;;;;5053255;28;20831;-72
2021/08/17 03:31:44;;;;;;;24.07;22.67;;;11.40;99.90;;;;;;5053312;28;20452;-73
2021/08/17 03:34:10;;;;;;;21.87;20.57;;;11.40;99.90;;;;;;5053174;28;20455;-73
2021/08/17 03:36:37;;;;;;;22.27;20.67;;;11.30;99.90;;;;;;5053448;28;20456;-71
2021/08/17 03:39:04;;;;;;;23.30;21.53;;;11.30;99.90;;;;;;5052287;28;20488;-73
2021/08/17 03:41:31;;;;;;;25.17;23.17;;;11.20;99.90;;;;;;5053238;28;20448;-73
2021/08/17 03:43:59;;;;;;;21.90;20.30;;;11.20;99.90;;;;;;5052987;28;20931;-73
2021/08/17 03:46:27;;;;;;;21.90;20.40;;;11.20;99.90;;;;;;5053174;28;20458;-73
2021/08/17 03:48:54;;;;;;;23.00;21.60;;;11.10;99.90;;;;;;5052756;28;20472;-73
2021/08/17 03:51:20;;;;;;;21.10;19.70;;;11.20;99.90;;;;;;5053147;28;20448;-73
2021/08/17 03:53:47;;;;;;;22.73;21.03;;;11.20;99.90;;;;;;5052730;28;20448;-73
2021/08/17 03:56:15;;;;;;;21.80;20.17;;;11.20;99.90;;;;;;5052675;28;20448;-74
2021/08/17 03:58:41;;;;;;;22.50;20.90;;;11.30;99.90;;;;;;5052638;28;20506;-74
2021/08/17 04:01:09;;;;;;;21.13;19.73;;;11.30;99.90;;;;;;5053043;28;20448;-73
2021/08/17 04:03:36;;;;;;;20.60;18.90;;;11.20;99.90;;;;;;5052803;28;20819;-74
2021/08/17 04:06:03;;;;;;;20.57;19.00;;;11.30;99.90;;;;;;5052811;28;20458;-74
2021/08/17 04:08:29;;;;;;;19.27;18.20;;;11.20;99.90;;;;;;5052804;28;20473;-74
2021/08/17 04:10:56;;;;;;;20.87;19.03;;;11.30;99.90;;;;;;5052535;28;20508;-74
2021/08/17 04:13:23;;;;;;;19.93;18.60;;;11.30;99.90;;;;;;5052640;28;20451;-76
2021/08/17 04:15:49;;;;;;;19.80;18.30;;;11.30;99.90;;;;;;5052564;28;20448;-76
2021/08/17 04:18:17;;;;;;;20.27;18.77;;;11.30;99.90;;;;;;5052371;28;20484;-75
2021/08/17 04:20:44;;;;;;;18.87;17.57;;;11.40;99.90;;;;;;5052229;28;20808;-74
2021/08/17 04:23:11;;;;;;;17.90;16.73;;;11.40;99.90;;;;;;5052206;28;20558;-73
2021/08/17 04:25:38;;;;;;;19.40;17.80;;;11.30;99.90;;;;;;5052434;28;20452;-73
2021/08/17 04:28:05;;;;;;;19.23;18.10;;;11.30;99.90;;;;;;5052764;28;20451;-73
2021/08/17 04:30:32;;;;;;;18.87;17.47;;;11.40;99.90;;;;;;5052344;28;20448;-73
2021/08/17 04:32:59;;;;;;;18.00;16.77;;;11.30;99.90;;;;;;5052045;28;20929;-73
2021/08/17 04:35:27;;;;;;;17.43;16.33;;;11.40;99.90;;;;;;5052118;28;20459;-73
2021/08/17 04:37:53;;;;;;;18.70;17.67;;;11.40;99.90;;;;;;5052333;28;20511;-74
2021/08/17 04:40:20;;;;;;;18.07;16.97;;;11.40;99.90;;;;;;5052016;28;20461;-74
2021/08/17 04:42:47;;;;;;;18.80;17.10;;;11.40;99.90;;;;;;5051807;28;20458;-72
2021/08/17 04:45:14;;;;;;;17.30;16.00;;;11.60;99.90;;;;;;5051850;28;20448;-72
2021/08/17 04:47:45;;;;;;;17.40;16.20;;;11.60;99.90;;;;;;5051609;28;20452;-72
2021/08/17 04:50:12;;;;;;;15.90;15.00;;;11.70;99.90;;;;;;5050813;28;20458;-71
2021/08/17 04:52:40;;;;;;;18.93;17.40;;;11.70;99.90;;;;;;5051812;28;20531;-73
2021/08/17 04:55:08;;;;;;;16.70;15.67;;;11.80;99.90;;;;;;5051940;28;20440;-73
2021/08/17 04:57:47;;;;;;;16.07;14.87;;;11.80;99.90;;;;;;5051609;28;20807;-72
2021/08/17 05:00:15;;;;;;;15.70;14.70;;;11.90;99.90;;;;;;5051735;28;20785;-72
2021/08/17 05:02:42;;;;;;;15.37;14.03;;;11.90;99.90;;;;;;5051495;28;20502;-72
2021/08/17 05:05:10;;;;;;;15.50;14.30;;;11.90;99.90;;;;;;5051411;28;20472;-72
2021/08/17 05:07:36;;;;;;;15.67;14.30;;;12.00;99.90;;;;;;5051740;28;20436;-73
2021/08/17 05:10:05;;;;;;;16.47;15.37;;;12.00;99.90;;;;;;5051521;28;20450;-72
2021/08/17 05:12:32;;;;;;;15.43;14.23;;;12.10;99.90;;;;;;5051161;28;20453;-73
2021/08/17 05:14:59;;;;;;;16.73;15.63;;;12.20;99.90;;;;;;5051307;28;20873;-73
2021/08/17 05:17:25;;;;;;;16.00;14.80;;;12.30;99.90;;;;;;5051369;28;20455;-73
2021/08/17 05:19:52;;;;;;;15.70;14.50;;;12.40;99.90;;;;;;5051291;28;20487;-77
2021/08/17 05:22:19;;;;;;;17.00;15.77;;;12.50;99.90;;;;;;5051520;28;20447;-74
2021/08/17 05:24:45;;;;;;;15.23;14.23;;;12.50;99.90;;;;;;5051241;28;20856;-73
2021/08/17 05:27:14;;;;;;;15.80;14.80;;;12.60;99.90;;;;;;5051392;28;20451;-73
2021/08/17 05:29:40;;;;;;;16.80;15.70;;;12.90;99.90;;;;;;5050998;28;20968;-73
2021/08/17 05:32:07;;;;;;;15.17;14.07;;;13.40;99.90;;;;;;5051135;28;20452;-73
2021/08/17 05:34:34;;;;;;;15.80;14.57;;;13.80;99.90;;;;;;5050983;28;20448;-73
2021/08/17 05:37:01;;;;;;;15.10;14.20;;;14.30;99.90;;;;;;5051047;28;20452;-73
2021/08/17 05:39:28;;;;;;;15.80;14.70;;;14.50;99.90;;;;;;5050944;28;20491;-73
2021/08/17 05:41:55;;;;;;;16.83;15.70;;;14.70;99.90;;;;;;5050924;28;20452;-73
2021/08/17 05:44:23;;;;;;;15.87;14.87;;;15.10;99.90;;;;;;5050702;28;20452;-70
2021/08/17 05:46:50;;;;;;;15.20;14.30;;;15.30;99.90;;;;;;5050757;28;20456;-71
2021/08/17 05:49:16;;;;;;;15.30;14.33;;;15.50;99.90;;;;;;5050160;28;20758;-71
2021/08/17 05:51:43;;;;;;;15.30;14.30;;;15.60;99.90;;;;;;5050570;28;20448;-71
2021/08/17 05:54:10;;;;;;;16.60;15.10;;;15.80;99.90;;;;;;5050733;28;20974;-72
2021/08/17 05:56:37;;;;;;;15.90;14.70;;;15.80;99.90;;;;;;5050702;28;20444;-71
2021/08/17 05:59:03;;;;;;;15.60;14.70;;;16.10;99.90;;;;;;5050657;28;20487;-72
2021/08/17 06:01:31;;;;;;;15.30;14.20;;;16.40;99.90;;;;;;5050387;28;20466;-72
2021/08/17 06:03:58;;;;;;;15.17;14.37;;;16.60;99.90;;;;;;5050736;28;20475;-72
2021/08/17 06:06:25;;;;;;;16.60;15.50;;;16.80;99.90;;;;;;5050303;28;20451;-72
2021/08/17 06:08:52;;;;;;;15.40;14.50;;;16.70;99.90;;;;;;5050693;28;20858;-72
2021/08/17 06:11:18;;;;;;;15.60;14.67;;;16.60;99.90;;;;;;5050492;28;20464;-72
2021/08/17 06:13:45;;;;;;;15.67;14.67;;;16.80;99.90;;;;;;5050430;28;20456;-71
2021/08/17 06:16:12;;;;;;;15.77;14.73;;;17.20;99.90;;;;;;5050515;28;20443;-71
2021/08/17 06:18:40;;;;;;;15.17;14.37;;;17.50;99.90;;;;;;5050527;28;20480;-73
2021/08/17 06:21:06;;;;;;;14.70;14.00;;;17.80;99.90;;;;;;5050704;28;20925;-72
2021/08/17 06:23:33;;;;;;;14.97;13.83;;;18.40;99.90;;;;;;5050496;28;20452;-72
2021/08/17 06:26:00;;;;;;;15.07;14.20;;;18.80;99.90;;;;;;5050488;28;20456;-71
2021/08/17 06:28:27;;;;;;;15.30;14.50;;;19.20;99.90;;;;;;5050430;28;20459;-72
2021/08/17 06:30:54;;;;;;;16.43;15.43;;;19.60;99.90;;;;;;5050386;28;20443;-72
2021/08/17 06:33:21;;;;;;;15.33;13.93;;;20.00;99.90;;;;;;5050410;28;20455;-74
2021/08/17 06:35:49;;;;;;;14.73;13.80;;;20.40;99.90;;;;;;5050116;28;20452;-72
2021/08/17 06:38:16;;;;;;;14.70;14.00;;;20.60;99.90;;;;;;5050114;28;20444;-73
2021/08/17 06:40:42;;;;;;;14.90;14.17;;;21.00;98.70;;;;;;5049946;28;20471;-70
2021/08/17 06:43:09;;;;;;;15.30;14.43;;;21.00;99.50;;;;;;5049965;28;20459;-74
2021/08/17 06:45:36;;;;;;;16.73;15.33;;;21.60;97.80;;;;;;5048187;28;20451;-73
2021/08/17 06:48:03;;;;;;;16.63;15.70;;;21.80;96.50;;;;;;5049943;28;20443;-73
2021/08/17 06:50:29;;;;;;;15.83;14.83;;;22.00;95.90;;;;;;5050344;28;20447;-73
2021/08/17 06:52:57;;;;;;;14.63;13.87;;;21.70;95.80;;;;;;5050284;28;20463;-73
2021/08/17 06:55:24;;;;;;;16.73;15.83;;;21.50;95.50;;;;;;5050372;28;20464;-74
2021/08/17 06:57:51;;;;;;;15.20;14.30;;;21.80;96.00;;;;;;5050128;28;20444;-73
2021/08/17 07:00:18;;;;;;;16.20;15.30;;;22.30;95.40;;;;;;5050019;28;20483;-74
2021/08/17 07:02:44;;;;;;;15.43;14.60;;;22.10;95.40;;;;;;5050109;28;20447;-74
2021/08/17 07:05:11;;;;;;;16.13;15.13;;;21.80;96.20;;;;;;5049952;28;20476;-74
2021/08/17 07:07:38;;;;;;;15.60;14.60;;;21.50;94.40;;;;;;5050296;28;20935;-75
2021/08/17 07:10:07;;;;;;;15.50;14.70;;;21.70;94.90;;;;;;5049932;28;20444;-73
2021/08/17 07:12:34;;;;;;;16.80;15.90;;;21.80;94.40;;;;;;5050103;28;20456;-73
2021/08/17 07:15:01;;;;;;;16.77;15.57;;;22.00;93.90;;;;;;5053640;28;20953;-74
2021/08/17 07:17:28;;;;;;;16.13;15.23;;;22.70;93.00;;;;;;5053658;28;20970;-73
2021/08/17 07:19:54;;;;;;;16.27;15.20;;;22.80;92.50;;;;;;5053383;28;20487;-73
2021/08/17 07:22:21;;;;;;;16.13;15.27;;;22.40;92.60;;;;;;5053455;28;20926;-74
2021/08/17 07:24:48;;;;;;;16.70;15.60;;;22.60;92.70;;;;;;5053446;28;20846;-74
2021/08/17 07:27:16;;;;;;;16.13;15.13;;;22.80;92.10;;;;;;5053258;28;20876;-75
2021/08/17 07:29:42;;;;;;;16.87;15.87;;;23.20;92.00;;;;;;5053178;28;20451;-76
2021/08/17 07:32:09;;;;;;;17.40;16.20;;;23.70;90.30;;;;;;5053254;28;20444;-75
2021/08/17 07:34:36;;;;;;;17.03;16.03;;;24.30;89.60;;;;;;5053236;28;20452;-75
2021/08/17 07:37:03;;;;;;;15.50;14.60;;;24.50;87.60;;;;;;5053131;28;20448;-75
2021/08/17 07:39:30;;;;;;;16.50;15.60;;;24.30;88.20;;;;;;5052972;28;20484;-75
2021/08/17 07:41:57;;;;;;;17.13;16.10;;;24.50;86.50;;;;;;5053228;28;20451;-76
2021/08/17 07:44:25;;;;;;;16.73;15.73;;;24.80;86.00;;;;;;5053184;28;20448;-75
2021/08/17 07:46:52;;;;;;;16.93;15.93;;;23.60;87.60;;;;;;5053026;28;20882;-76
2021/08/17 07:49:19;;;;;;;16.43;15.43;;;22.90;89.00;;;;;;5052827;28;20487;-74
2021/08/17 07:51:46;;;;;;;16.50;15.60;;;23.20;89.10;;;;;;5052806;28;20447;-77
2021/08/17 07:54:12;;;;;;;15.00;14.17;;;23.80;86.10;;;;;;5052816;28;20468;-77
2021/08/17 07:56:39;;;;;;;17.03;15.93;;;24.30;83.30;;;;;;5053005;28;20459;-77
2021/08/17 07:59:06;;;;;;;17.63;16.63;;;24.80;84.30;;;;;;5052917;28;20484;-77
2021/08/17 08:01:34;;;;;;;16.80;16.00;;;25.70;80.90;;;;;;5052712;28;20443;-77
2021/08/17 08:04:01;;;;;;;17.17;16.17;;;25.30;79.40;;;;;;5052583;28;20464;-76
2021/08/17 08:06:28;;;;;;;17.23;16.33;;;24.80;81.50;;;;;;5052809;28;20483;-77
2021/08/17 08:08:54;;;;;;;17.37;16.37;;;24.60;82.10;;;;;;5052950;28;20818;-76
2021/08/17 08:11:21;;;;;;;17.07;16.17;;;25.00;82.20;;;;;;5052949;28;20455;-77
2021/08/17 08:13:48;;;;;;;17.60;16.27;;;24.70;79.70;;;;;;5052582;28;20455;-75
2021/08/17 08:16:15;;;;;;;16.67;15.87;;;24.70;81.10;;;;;;5052390;28;21211;-76
2021/08/17 08:18:43;;;;;;;17.00;16.00;;;24.90;77.10;;;;;;5052574;28;20452;-76
2021/08/17 08:21:09;;;;;;;16.70;15.80;;;24.90;78.50;;;;;;5053025;28;20448;-76
2021/08/17 08:23:37;;;;;;;17.57;16.37;;;25.20;77.10;;;;;;5052603;28;20443;-74
2021/08/17 08:26:03;;;;;;;16.93;16.03;;;25.30;76.90;;;;;;5052250;28;20519;-76
2021/08/17 08:28:30;;;;;;;16.80;15.97;;;26.40;74.60;;;;;;5052479;28;20448;-75
2021/08/17 08:30:57;;;;;;;15.87;15.17;;;26.40;76.10;;;;;;5052515;28;20439;-75
2021/08/17 08:33:23;;;;;;;16.50;15.70;;;27.00;70.70;;;;;;5052264;28;20447;-75
2021/08/17 08:35:52;;;;;;;16.07;15.27;;;27.20;68.60;;;;;;5051925;28;20443;-76
2021/08/17 08:38:18;;;;;;;18.17;16.93;;;26.80;64.80;;;;;;5053351;28;20466;-76
2021/08/17 08:40:48;;;;;;;16.40;15.50;;;26.00;66.80;;;;;;5056547;28;20826;-76
2021/08/17 08:43:18;;;;;;;17.67;16.77;;;25.00;70.80;;;;;;5055996;28;20475;-77
2021/08/17 08:45:46;;;;;;;16.63;15.73;;;24.50;72.70;;;;;;5051747;28;20460;-78
2021/08/17 08:48:13;;;;;;;17.33;16.33;;;24.40;75.50;;;;;;5054372;28;20479;-78
2021/08/17 08:50:42;;;;;;;17.23;16.00;;;24.40;75.30;;;;;;5052387;28;20857;-79
2021/08/17 08:53:10;;;;;;;17.40;16.40;;;24.00;75.50;;;;;;5057095;28;20964;-80
2021/08/17 08:55:37;;;;;;;16.03;15.23;;;23.90;75.00;;;;;;5053116;28;20926;-77
2021/08/17 08:58:03;;;;;;;17.30;16.13;;;23.50;77.10;;;;;;5051424;28;20448;-77
2021/08/17 09:00:31;;;;;;;16.23;15.33;;;23.50;78.80;;;;;;5051328;28;20484;-78
2021/08/17 09:02:58;;;;;;;16.87;15.67;;;23.30;78.00;;;;;;5051373;28;20460;-77
2021/08/17 09:05:24;;;;;;;17.37;16.27;;;23.40;77.10;;;;;;5051671;28;20825;-76
2021/08/17 09:07:53;;;;;;;16.73;15.70;;;23.60;76.30;;;;;;5051593;28;20798;-76
2021/08/17 09:10:23;;;;;;;17.63;16.53;;;24.30;74.20;;;;;;5051460;28;20450;-75
2021/08/17 09:12:52;;;;;;;18.17;16.33;;;24.80;73.90;;;;;;5051423;28;20448;-77
2021/08/17 09:15:20;;;;;;;17.13;16.13;;;25.20;72.80;;;;;;5051392;28;20444;-78
2021/08/17 09:17:59;;;;;;;17.20;16.30;;;25.30;72.10;;;;;;5051290;28;20455;-77
2021/08/17 09:20:32;;;;;;;16.53;15.63;;;25.10;71.00;;;;;;5051312;28;20487;-77
2021/08/17 09:22:59;;;;;;;17.43;16.27;;;24.90;71.30;;;;;;5051403;28;20456;-76
2021/08/17 09:25:34;;;;;;;17.80;16.70;;;25.00;72.00;;;;;;5051260;28;20452;-75
2021/08/17 09:28:28;;;;;;;20.53;18.70;;;25.80;69.40;;;;;;5051241;28;20443;-76
2021/08/17 09:30:55;;;;;;;16.80;15.90;;;26.50;68.10;;;;;;5051254;28;20445;-76
2021/08/17 09:33:22;;;;;;;17.40;16.40;;;26.50;67.00;;;;;;5051358;28;20456;-76
2021/08/17 09:35:56;;;;;;;16.63;15.83;;;26.30;64.80;;;;;;5050654;28;20815;-75
2021/08/17 09:38:22;;;;;;;16.50;15.60;;;25.80;66.70;;;;;;5051339;28;20455;-76
2021/08/17 09:40:50;;;;;;;16.33;15.50;;;25.70;67.00;;;;;;5051010;28;20483;-76
2021/08/17 09:43:19;;;;;;;17.00;16.00;;;25.70;68.10;;;;;;5051094;28;20496;-76
2021/08/17 09:45:47;;;;;;;17.43;16.47;;;25.30;67.70;;;;;;5050985;28;20455;-76
2021/08/17 09:48:16;;;;;;;16.27;15.47;;;25.00;69.00;;;;;;5050627;28;20484;-76
2021/08/17 09:50:44;;;;;;;16.33;15.43;;;25.40;65.80;;;;;;5050730;28;20817;-77
2021/08/17 09:53:13;;;;;;;15.43;14.60;;;25.30;66.30;;;;;;5050763;28;20551;-76
2021/08/17 09:55:43;;;;;;;16.80;15.90;;;25.70;63.20;;;;;;5050892;28;20455;-77
2021/08/17 09:58:22;;;;;;;16.90;16.00;;;25.90;65.30;;;;;;5050696;28;20447;-76
2021/08/17 10:00:50;;;;;;;16.87;15.97;;;25.80;63.10;;;;;;5050611;28;20479;-75
2021/08/17 10:03:17;;;;;;;16.77;15.70;;;25.70;63.00;;;;;;5050595;28;20782;-76
2021/08/17 10:05:44;;;;;;;17.13;16.13;;;25.10;63.10;;;;;;5050625;28;20458;-76
2021/08/17 10:08:13;;;;;;;16.70;15.73;;;24.80;65.00;;;;;;5050720;28;20835;-75
2021/08/17 10:10:40;;;;;;;16.93;16.00;;;24.30;65.70;;;;;;5050800;28;20447;-75
2021/08/17 10:13:11;;;;;;;16.60;15.60;;;24.60;65.30;;;;;;5050766;28;20948;-76
2021/08/17 10:15:40;;;;;;;17.13;16.13;;;24.70;64.00;;;;;;5050711;28;20456;-76
2021/08/17 10:18:08;;;;;;;16.60;15.80;;;24.40;65.10;;;;;;5050585;28;20447;-76
2021/08/17 10:20:37;;;;;;;16.93;16.03;;;24.30;63.00;;;;;;5050543;28;20490;-77
2021/08/17 10:23:04;;;;;;;16.03;15.20;;;24.50;64.10;;;;;;5050407;28;20452;-74
2021/08/17 10:25:43;;;;;;;16.30;15.30;;;23.80;64.70;;;;;;5050681;28;20768;-75
2021/08/17 10:28:23;;;;;;;16.30;15.30;;;23.40;67.50;;;;;;5050586;28;20451;-76
2021/08/17 10:30:51;;;;;;;16.90;15.70;;;23.30;69.60;;;;;;5050627;28;20814;-76
2021/08/17 10:33:38;;;;;;;15.40;14.50;;;23.20;67.20;;;;;;5050551;28;20459;-75
2021/08/17 10:36:05;;;;;;;15.70;14.90;;;23.10;66.80;;;;;;5050435;28;20452;-75
2021/08/17 10:38:43;;;;;;;15.70;14.80;;;23.60;66.00;;;;;;5050572;28;21007;-75
2021/08/17 10:41:10;;;;;;;16.00;15.20;;;23.40;64.70;;;;;;5050475;28;20490;-75
2021/08/17 10:44:14;;;;;;;15.87;14.87;;;24.20;63.00;;;;;;5050383;28;20448;-75
2021/08/17 10:46:49;;;;;;;15.73;14.93;;;24.80;62.10;;;;;;5050427;28;20968;-75
2021/08/17 10:49:37;;;;;;;16.97;15.97;;;25.70;62.30;;;;;;5052848;28;20471;-75
2021/08/17 10:52:05;;;;;;;16.07;15.27;;;26.30;60.80;;;;;;5054101;28;20828;-76
2021/08/17 10:54:33;;;;;;;15.33;14.60;;;26.30;59.60;;;;;;5054150;28;20448;-75
2021/08/17 10:57:20;;;;;;;17.20;16.30;;;25.90;60.80;;;;;;5054236;28;20455;-75
2021/08/17 10:59:49;;;;;;;16.10;15.30;;;26.50;60.60;;;;;;5053979;28;20448;-73
2021/08/17 11:02:22;;;;;;;16.77;15.87;;;27.40;57.80;;;;;;5053941;28;20455;-74
2021/08/17 11:04:50;;;;;;;16.80;16.00;;;28.10;56.10;;;;;;5054492;28;20494;-76
2021/08/17 11:07:33;;;;;;;17.77;16.77;;;27.90;57.70;;;;;;5065115;28;20445;-77
2021/08/17 11:10:02;;;;;;;17.23;16.23;;;28.70;57.60;;;;;;5059700;28;20432;-76
2021/08/17 11:12:35;;;;;;;17.20;16.20;;;28.10;57.20;;;;;;5054029;28;20444;-77
2021/08/17 11:15:03;;;;;;;17.30;16.30;;;28.20;55.20;;;;;;5053805;28;20456;-77
2021/08/17 11:17:31;;;;;;;16.60;15.70;;;28.00;55.20;;;;;;5053943;28;20452;-77
2021/08/17 11:19:58;;;;;;;17.00;16.10;;;27.70;56.50;;;;;;5054479;28;20491;-77
2021/08/17 11:22:26;;;;;;;15.90;15.00;;;27.40;54.90;;;;;;5065352;28;20443;-77
2021/08/17 11:24:55;;;;;;;16.30;15.50;;;27.60;55.80;;;;;;5074783;28;20573;-75
2021/08/17 11:27:24;;;;;;;17.20;16.30;;;27.30;56.50;;;;;;5074603;28;20454;-75
2021/08/17 11:29:53;;;;;;;16.60;15.70;;;26.80;56.80;;;;;;5074299;28;20455;-75
2021/08/17 11:32:32;;;;;;;16.40;15.60;;;26.20;59.00;;;;;;5074106;28;20466;-76
2021/08/17 11:35:04;;;;;;;16.57;15.77;;;27.00;59.70;;;;;;5073479;28;20451;-74
2021/08/17 11:37:32;;;;;;;16.40;15.60;;;28.20;56.50;;;;;;5073444;28;20807;-75
2021/08/17 11:40:01;;;;;;;15.80;15.00;;;29.00;53.50;;;;;;5057847;28;20444;-74
2021/08/17 11:42:29;;;;;;;16.00;15.20;;;29.10;51.40;;;;;;5053563;28;20459;-75
2021/08/17 11:44:58;;;;;;;16.57;15.67;;;28.80;51.80;;;;;;5053352;28;20448;-75
2021/08/17 11:47:25;;;;;;;15.50;14.77;;;29.60;50.70;;;;;;5053479;28;20475;-74
2021/08/17 11:49:55;;;;;;;15.53;14.83;;;30.00;50.10;;;;;;5053279;28;20480;-75
2021/08/17 11:52:24;;;;;;;15.23;14.53;;;30.50;49.50;;;;;;5053372;28;20816;-75
2021/08/17 11:54:54;;;;;;;16.27;15.50;;;30.20;46.10;;;;;;5053251;28;20451;-75
2021/08/17 11:57:25;;;;;;;16.97;16.00;;;29.50;46.10;;;;;;5053456;28;20456;-76
2021/08/17 11:59:52;;;;;;;16.17;15.47;;;29.20;48.20;;;;;;5052689;28;20506;-76
2021/08/17 12:02:24;;;;;;;15.27;14.57;;;28.80;47.30;;;;;;5052883;28;20463;-73
2021/08/17 12:04:55;;;;;;;16.10;15.40;;;28.10;49.00;;;;;;5054008;28;20878;-73
2021/08/17 12:07:23;;;;;;;15.53;14.83;;;27.80;48.70;;;;;;5072837;28;20451;-76
2021/08/17 12:09:50;;;;;;;14.50;13.87;;;28.50;48.60;;;;;;5072849;28;20451;-76
2021/08/17 12:12:19;;;;;;;15.20;14.50;;;29.00;48.90;;;;;;5072404;28;20439;-76
2021/08/17 12:14:47;;;;;;;15.73;14.83;;;29.30;47.70;;;;;;5052543;28;20451;-76
2021/08/17 12:17:21;;;;;;;15.83;15.03;;;29.10;47.20;;;;;;5052847;28;20538;-76
2021/08/17 12:19:50;;;;;;;16.43;15.60;;;28.80;48.10;;;;;;5052806;28;20455;-76
2021/08/17 12:22:26;;;;;;;15.90;15.20;;;28.90;49.10;;;;;;5052641;28;20515;-74
2021/08/17 12:24:54;;;;;;;15.97;15.27;;;29.20;48.10;;;;;;5052761;28;20805;-73
2021/08/17 12:27:25;;;;;;;15.80;15.00;;;28.80;49.00;;;;;;5052526;28;20455;-73
2021/08/17 12:29:52;;;;;;;16.10;15.23;;;29.20;47.00;;;;;;5052524;28;20455;-72
2021/08/17 12:32:21;;;;;;;15.87;15.07;;;30.20;45.80;;;;;;5052283;28;20813;-72